sensor_id;sensor_type;location;lat;lon;timestamp;pressure;altitude;pressure_sealevel;temperature;humidity
56514;BME280;62152;52.078;8.414;2023-02-12T00:02:30;102207.91;;;16.65;56.99
56514;BME280;62152;52.078;8.414;2023-02-12T00:06:31;102212.59;;;16.65;57.24
56514;BME280;62152;52.078;8.414;2023-02-12T00:10:32;102209.84;;;16.65;57.30
56514;BME280;62152;52.078;8.414;2023-02-12T00:14:35;102199.69;;;16.65;56.84
56514;BME280;62152;52.078;8.414;2023-02-12T00:18:38;102205.19;;;16.65;57.69
56514;BME280;62152;52.078;8.414;2023-02-12T00:22:39;102203.56;;;16.64;56.88
56514;BME280;62152;52.078;8.414;2023-02-12T00:26:40;102207.91;;;16.65;57.33
56514;BME280;62152;52.078;8.414;2023-02-12T00:30:40;102211.78;;;16.64;56.83
56514;BME280;62152;52.078;8.414;2023-02-12T00:34:43;102209.53;;;16.66;57.09
56514;BME280;62152;52.078;8.414;2023-02-12T00:38:45;102201.94;;;16.63;56.99
56514;BME280;62152;52.078;8.414;2023-02-12T00:42:46;102213.72;;;16.64;57.10
56514;BME280;62152;52.078;8.414;2023-02-12T00:46:47;102213.72;;;16.64;56.98
56514;BME280;62152;52.078;8.414;2023-02-12T00:50:51;102221.94;;;16.64;57.10
56514;BME280;62152;52.078;8.414;2023-02-12T00:54:52;102211.78;;;16.64;57.25
56514;BME280;62152;52.078;8.414;2023-02-12T00:58:53;102220.00;;;16.64;57.10
56514;BME280;62152;52.078;8.414;2023-02-12T01:02:54;102210.97;;;16.64;57.31
56514;BME280;62152;52.078;8.414;2023-02-12T01:06:56;102216.44;;;16.64;56.91
56514;BME280;62152;52.078;8.414;2023-02-12T01:10:59;102220.81;;;16.65;56.97
56514;BME280;62152;52.078;8.414;2023-02-12T01:15:02;102224.66;;;16.64;56.90
56514;BME280;62152;52.078;8.414;2023-02-12T01:19:03;102227.41;;;16.64;56.73
56514;BME280;62152;52.078;8.414;2023-02-12T01:23:06;102229.34;;;16.63;56.86
56514;BME280;62152;52.078;8.414;2023-02-12T01:27:07;102235.63;;;16.64;56.97
56514;BME280;62152;52.078;8.414;2023-02-12T01:31:09;102241.09;;;16.64;57.21
56514;BME280;62152;52.078;8.414;2023-02-12T01:35:11;102243.03;;;16.63;57.15
56514;BME280;62152;52.078;8.414;2023-02-12T01:39:14;102243.03;;;16.63;56.88
56514;BME280;62152;52.078;8.414;2023-02-12T01:43:15;102249.31;;;16.64;57.21
56514;BME280;62152;52.078;8.414;2023-02-12T01:47:17;102235.63;;;16.64;57.19
56514;BME280;62152;52.078;8.414;2023-02-12T01:51:20;102238.38;;;16.64;57.22
56514;BME280;62152;52.078;8.414;2023-02-12T01:55:25;102246.91;;;16.62;56.84
56514;BME280;62152;52.078;8.414;2023-02-12T01:59:26;102240.28;;;16.63;57.13
56514;BME280;62152;52.078;8.414;2023-02-12T02:03:28;102240.28;;;16.63;56.84
56514;BME280;62152;52.078;8.414;2023-02-12T02:07:31;102239.50;;;16.63;57.10
56514;BME280;62152;52.078;8.414;2023-02-12T02:11:33;102239.50;;;16.63;56.86
56514;BME280;62152;52.078;8.414;2023-02-12T02:15:36;102232.38;;;16.62;56.82
56514;BME280;62152;52.078;8.414;2023-02-12T02:20:09;102233.19;;;16.62;57.17
56514;BME280;62152;52.078;8.414;2023-02-12T02:29:44;102223.34;;;16.61;57.08
56514;BME280;62152;52.078;8.414;2023-02-12T02:34:13;102221.44;;;16.62;56.90
56514;BME280;62152;52.078;8.414;2023-02-12T02:38:27;102215.94;;;16.62;57.11
56514;BME280;62152;52.078;8.414;2023-02-12T02:42:38;102206.13;;;16.61;56.98
56514;BME280;62152;52.078;8.414;2023-02-12T02:46:46;102204.19;;;16.61;57.17
56514;BME280;62152;52.078;8.414;2023-02-12T02:50:55;102205.00;;;16.62;57.12
56514;BME280;62152;52.078;8.414;2023-02-12T02:55:04;102198.69;;;16.61;57.08
56514;BME280;62152;52.078;8.414;2023-02-12T02:59:12;102209.66;;;16.61;56.81
56514;BME280;62152;52.078;8.414;2023-02-12T03:03:22;102211.28;;;16.62;56.99
56514;BME280;62152;52.078;8.414;2023-02-12T03:07:31;102210.47;;;16.62;56.99
56514;BME280;62152;52.078;8.414;2023-02-12T03:11:36;102198.69;;;16.61;57.00
56514;BME280;62152;52.078;8.414;2023-02-12T03:15:39;102199.00;;;16.60;56.69
56514;BME280;62152;52.078;8.414;2023-02-12T03:19:49;102204.19;;;16.61;56.91
56514;BME280;62152;52.078;8.414;2023-02-12T03:24:00;102199.50;;;16.62;57.09
56514;BME280;62152;52.078;8.414;2023-02-12T03:28:15;102207.72;;;16.62;57.12
56514;BME280;62152;52.078;8.414;2023-02-12T03:32:29;102209.66;;;16.61;57.24
56514;BME280;62152;52.078;8.414;2023-02-12T03:36:44;102205.81;;;16.62;57.08
56514;BME280;62152;52.078;8.414;2023-02-12T03:40:57;102203.06;;;16.62;57.20
56514;BME280;62152;52.078;8.414;2023-02-12T03:45:09;102205.00;;;16.62;57.21
56514;BME280;62152;52.078;8.414;2023-02-12T03:49:26;102203.06;;;16.62;57.21
56514;BME280;62152;52.078;8.414;2023-02-12T03:53:31;102201.44;;;16.61;56.91
56514;BME280;62152;52.078;8.414;2023-02-12T03:57:38;102202.25;;;16.62;56.82
56514;BME280;62152;52.078;8.414;2023-02-12T04:01:42;102214.03;;;16.62;57.16
56514;BME280;62152;52.078;8.414;2023-02-12T04:05:43;102210.47;;;16.62;56.95
56514;BME280;62152;52.078;8.414;2023-02-12T04:09:45;102222.25;;;16.62;56.84
56514;BME280;62152;52.078;8.414;2023-02-12T04:14:04;102227.72;;;16.62;56.92
56514;BME280;62152;52.078;8.414;2023-02-12T04:18:28;102237.88;;;16.62;56.82
56514;BME280;62152;52.078;8.414;2023-02-12T04:22:45;102243.34;;;16.62;56.67
56514;BME280;62152;52.078;8.414;2023-02-12T04:27:08;102248.81;;;16.62;57.14
56514;BME280;62152;52.078;8.414;2023-02-12T04:31:23;102254.31;;;16.62;56.84
56514;BME280;62152;52.078;8.414;2023-02-12T04:35:32;102255.44;;;16.61;56.68
56514;BME280;62152;52.078;8.414;2023-02-12T04:39:38;102269.13;;;16.61;57.08
56514;BME280;62152;52.078;8.414;2023-02-12T04:43:43;102270.75;;;16.62;56.77
56514;BME280;62152;52.078;8.414;2023-02-12T04:47:43;102280.09;;;16.61;57.00
56514;BME280;62152;52.078;8.414;2023-02-12T04:51:45;102282.50;;;16.62;57.12
56514;BME280;62152;52.078;8.414;2023-02-12T04:55:47;102277.34;;;16.61;57.20
56514;BME280;62152;52.078;8.414;2023-02-12T04:59:49;102276.50;;;16.60;57.25
56514;BME280;62152;52.078;8.414;2023-02-12T05:03:50;102275.41;;;16.61;56.92
56514;BME280;62152;52.078;8.414;2023-02-12T05:07:52;102283.63;;;16.61;57.15
56514;BME280;62152;52.078;8.414;2023-02-12T05:11:52;102272.69;;;16.61;57.14
56514;BME280;62152;52.078;8.414;2023-02-12T05:15:55;102277.34;;;16.61;57.45
56514;BME280;62152;52.078;8.414;2023-02-12T05:19:55;102277.34;;;16.61;56.86
56514;BME280;62152;52.078;8.414;2023-02-12T05:23:56;102283.63;;;16.61;57.22
56514;BME280;62152;52.078;8.414;2023-02-12T05:27:57;102273.75;;;16.60;57.31
56514;BME280;62152;52.078;8.414;2023-02-12T05:31:59;102271.88;;;16.61;56.99
56514;BME280;62152;52.078;8.414;2023-02-12T05:36:05;102276.50;;;16.60;56.96
56514;BME280;62152;52.078;8.414;2023-02-12T05:40:08;102275.69;;;16.60;57.25
56514;BME280;62152;52.078;8.414;2023-02-12T05:44:10;102271.88;;;16.61;56.88
56514;BME280;62152;52.078;8.414;2023-02-12T05:48:13;102280.09;;;16.61;56.77
56514;BME280;62152;52.078;8.414;2023-02-12T05:52:14;102270.53;;;16.58;57.04
56514;BME280;62152;52.078;8.414;2023-02-12T05:56:17;102275.69;;;16.60;56.92
56514;BME280;62152;52.078;8.414;2023-02-12T06:00:20;102269.13;;;16.61;57.05
56514;BME280;62152;52.078;8.414;2023-02-12T06:04:24;102268.28;;;16.60;57.00
56514;BME280;62152;52.078;8.414;2023-02-12T06:08:27;102271.03;;;16.60;56.80
56514;BME280;62152;52.078;8.414;2023-02-12T06:12:28;102274.59;;;16.61;57.14
56514;BME280;62152;52.078;8.414;2023-02-12T06:16:29;102280.09;;;16.61;56.78
56514;BME280;62152;52.078;8.414;2023-02-12T06:20:32;102280.91;;;16.61;56.83
56514;BME280;62152;52.078;8.414;2023-02-12T06:24:33;102274.59;;;16.61;56.93
56514;BME280;62152;52.078;8.414;2023-02-12T06:28:34;102281.19;;;16.60;57.09
56514;BME280;62152;52.078;8.414;2023-02-12T06:32:35;102282.81;;;16.61;57.06
56514;BME280;62152;52.078;8.414;2023-02-12T06:36:38;102290.22;;;16.60;57.24
56514;BME280;62152;52.078;8.414;2023-02-12T06:40:41;102287.47;;;16.60;57.14
56514;BME280;62152;52.078;8.414;2023-02-12T06:44:42;102291.84;;;16.61;57.20
56514;BME280;62152;52.078;8.414;2023-02-12T06:48:43;102296.53;;;16.61;57.16
56514;BME280;62152;52.078;8.414;2023-02-12T06:52:45;102300.06;;;16.61;57.07
56514;BME280;62152;52.078;8.414;2023-02-12T06:56:46;102305.03;;;16.59;57.09
56514;BME280;62152;52.078;8.414;2023-02-12T07:00:46;102310.50;;;16.59;56.77
56514;BME280;62152;52.078;8.414;2023-02-12T07:04:47;102316.78;;;16.60;56.74
56514;BME280;62152;52.078;8.414;2023-02-12T07:08:49;102319.53;;;16.60;56.75
56514;BME280;62152;52.078;8.414;2023-02-12T07:12:50;102319.53;;;16.60;56.76
56514;BME280;62152;52.078;8.414;2023-02-12T07:16:51;102323.41;;;16.59;56.96
56514;BME280;62152;52.078;8.414;2023-02-12T07:20:54;102328.56;;;16.60;57.00
56514;BME280;62152;52.078;8.414;2023-02-12T07:24:57;102337.09;;;16.59;56.55
56514;BME280;62152;52.078;8.414;2023-02-12T07:28:58;102334.03;;;16.60;56.68
56514;BME280;62152;52.078;8.414;2023-02-12T07:32:58;102340.63;;;16.59;57.10
56514;BME280;62152;52.078;8.414;2023-02-12T07:36:59;102341.75;;;16.58;56.37
56514;BME280;62152;52.078;8.414;2023-02-12T07:41:10;102352.72;;;16.58;56.72
56514;BME280;62152;52.078;8.414;2023-02-12T07:45:12;102368.03;;;16.59;56.64
56514;BME280;62152;52.078;8.414;2023-02-12T07:49:15;102353.53;;;16.59;56.76
56514;BME280;62152;52.078;8.414;2023-02-12T07:53:16;102359.81;;;16.59;56.52
56514;BME280;62152;52.078;8.414;2023-02-12T07:57:19;102353.53;;;16.59;56.83
56514;BME280;62152;52.078;8.414;2023-02-12T08:01:21;102352.00;;;16.53;56.51
56514;BME280;62152;52.078;8.414;2023-02-12T08:05:24;102351.91;;;16.44;56.42
56514;BME280;62152;52.078;8.414;2023-02-12T08:09:27;102344.59;;;16.53;55.77
56514;BME280;62152;52.078;8.414;2023-02-12T08:13:30;102358.81;;;16.55;55.76
56514;BME280;62152;52.078;8.414;2023-02-12T08:17:31;102376.06;;;16.56;56.17
56514;BME280;62152;52.078;8.414;2023-02-12T08:21:33;102365.91;;;16.56;55.61
56514;BME280;62152;52.078;8.414;2023-02-12T08:25:35;102373.03;;;16.57;55.83
56514;BME280;62152;52.078;8.414;2023-02-12T08:29:37;102385.59;;;16.58;55.48
56514;BME280;62152;52.078;8.414;2023-02-12T08:33:38;102382.84;;;16.58;55.78
56514;BME280;62152;52.078;8.414;2023-02-12T08:37:39;102389.38;;;16.62;55.78
56514;BME280;62152;52.078;8.414;2023-02-12T08:41:40;102396.78;;;16.62;55.91
56514;BME280;62152;52.078;8.414;2023-02-12T08:45:42;102399.50;;;16.62;55.63
56514;BME280;62152;52.078;8.414;2023-02-12T08:49:43;102397.31;;;16.78;56.08
56514;BME280;62152;52.078;8.414;2023-02-12T08:53:45;102402.81;;;16.91;56.57
56514;BME280;62152;52.078;8.414;2023-02-12T09:00:22;102407.78;;;17.03;56.42
56514;BME280;62152;52.078;8.414;2023-02-12T09:04:25;102405.31;;;17.02;56.72
56514;BME280;62152;52.078;8.414;2023-02-12T09:08:27;102409.41;;;17.04;56.56
56514;BME280;62152;52.078;8.414;2023-02-12T09:12:28;102412.06;;;17.09;57.10
56514;BME280;62152;52.078;8.414;2023-02-12T09:16:32;102403.19;;;17.12;56.68
56514;BME280;62152;52.078;8.414;2023-02-12T09:20:37;102413.84;;;17.14;56.79
56514;BME280;62152;52.078;8.414;2023-02-12T09:24:39;102419.16;;;17.10;56.78
56514;BME280;62152;52.078;8.414;2023-02-12T09:28:41;102429.19;;;17.15;56.52
56514;BME280;62152;52.078;8.414;2023-02-12T09:32:43;102426.75;;;17.13;57.18
56514;BME280;62152;52.078;8.414;2023-02-12T09:36:44;102429.19;;;17.15;57.36
56514;BME280;62152;52.078;8.414;2023-02-12T09:41:08;102433.19;;;17.09;57.04
56514;BME280;62152;52.078;8.414;2023-02-12T09:45:26;102428.69;;;17.13;56.95
56514;BME280;62152;52.078;8.414;2023-02-12T09:49:48;102438.22;;;17.15;56.83
56514;BME280;62152;52.078;8.414;2023-02-12T09:54:14;102440.88;;;17.20;57.02
56514;BME280;62152;52.078;8.414;2023-02-12T09:58:23;102435.19;;;17.17;56.46
56514;BME280;62152;52.078;8.414;2023-02-12T10:02:28;102439.75;;;17.21;56.97
56514;BME280;62152;52.078;8.414;2023-02-12T10:06:38;102440.47;;;17.27;57.13
56514;BME280;62152;52.078;8.414;2023-02-12T10:10:51;102439.75;;;17.21;56.82
56514;BME280;62152;52.078;8.414;2023-02-12T10:15:16;102439.16;;;17.11;57.39
56514;BME280;62152;52.078;8.414;2023-02-12T10:19:40;102441.19;;;17.05;57.20
56514;BME280;62152;52.078;8.414;2023-02-12T10:24:32;102440.97;;;17.02;57.63
56514;BME280;62152;52.078;8.414;2023-02-12T10:28:43;102434.19;;;16.99;57.42
56514;BME280;62152;52.078;8.414;2023-02-12T10:32:47;102441.59;;;16.99;56.89
56514;BME280;62152;52.078;8.414;2023-02-12T10:36:58;102447.69;;;16.95;56.83
56514;BME280;62152;52.078;8.414;2023-02-12T10:41:05;102446.88;;;16.95;56.94
56514;BME280;62152;52.078;8.414;2023-02-12T10:45:12;102447.97;;;16.94;57.25
56514;BME280;62152;52.078;8.414;2023-02-12T10:49:16;102450.72;;;16.94;56.67
56514;BME280;62152;52.078;8.414;2023-02-12T10:53:21;102459.25;;;16.92;56.83
56514;BME280;62152;52.078;8.414;2023-02-12T10:57:26;102447.47;;;16.92;57.21
56514;BME280;62152;52.078;8.414;2023-02-12T11:01:33;102434.88;;;16.91;57.03
56514;BME280;62152;52.078;8.414;2023-02-12T11:05:38;102439.56;;;16.90;57.28
56514;BME280;62152;52.078;8.414;2023-02-12T11:09:42;102429.72;;;16.89;56.49
56514;BME280;62152;52.078;8.414;2023-02-12T11:13:53;102441.50;;;16.90;57.04
56514;BME280;62152;52.078;8.414;2023-02-12T11:18:00;102439.88;;;16.89;56.60
56514;BME280;62152;52.078;8.414;2023-02-12T11:22:06;102440.47;;;16.86;56.58
56514;BME280;62152;52.078;8.414;2023-02-12T11:26:24;102435.78;;;16.86;57.04
56514;BME280;62152;52.078;8.414;2023-02-12T11:30:30;102431.13;;;16.87;56.91
56514;BME280;62152;52.078;8.414;2023-02-12T11:34:31;102426.44;;;16.87;56.47
56514;BME280;62152;52.078;8.414;2023-02-12T11:38:35;102416.91;;;16.85;56.72
56514;BME280;62152;52.078;8.414;2023-02-12T11:42:39;102414.66;;;16.87;56.42
56514;BME280;62152;52.078;8.414;2023-02-12T11:46:47;102416.59;;;16.86;56.30
56514;BME280;62152;52.078;8.414;2023-02-12T11:50:52;102411.44;;;16.85;56.60
56514;BME280;62152;52.078;8.414;2023-02-12T11:54:59;102413.34;;;16.84;56.79
56514;BME280;62152;52.078;8.414;2023-02-12T11:59:19;102413.06;;;16.86;56.35
56514;BME280;62152;52.078;8.414;2023-02-12T12:03:41;102410.31;;;16.86;56.62
56514;BME280;62152;52.078;8.414;2023-02-12T12:07:52;102409.19;;;16.87;56.69
56514;BME280;62152;52.078;8.414;2023-02-12T12:12:07;102404.03;;;16.85;56.48
56514;BME280;62152;52.078;8.414;2023-02-12T12:16:18;102402.50;;;16.93;56.29
56514;BME280;62152;52.078;8.414;2023-02-12T12:20:32;102398.22;;;17.14;56.27
56514;BME280;62152;52.078;8.414;2023-02-12T12:24:45;102394.25;;;17.20;55.69
56514;BME280;62152;52.078;8.414;2023-02-12T12:29:00;102388.44;;;17.22;56.23
56514;BME280;62152;52.078;8.414;2023-02-12T12:33:15;102391.41;;;17.26;56.39
56514;BME280;62152;52.078;8.414;2023-02-12T12:37:33;102381.25;;;17.26;56.30
56514;BME280;62152;52.078;8.414;2023-02-12T12:41:52;102379.31;;;17.27;56.47
56514;BME280;62152;52.078;8.414;2023-02-12T12:46:24;102386.31;;;17.33;56.41
56514;BME280;62152;52.078;8.414;2023-02-12T12:50:49;102381.06;;;17.22;56.66
56514;BME280;62152;52.078;8.414;2023-02-12T12:55:28;102362.88;;;17.13;56.90
56514;BME280;62152;52.078;8.414;2023-02-12T13:00:06;102359.97;;;17.09;57.08
56514;BME280;62152;52.078;8.414;2023-02-12T13:09:47;102352.94;;;17.03;57.09
56514;BME280;62152;52.078;8.414;2023-02-12T13:14:12;102346.66;;;17.03;57.02
56514;BME280;62152;52.078;8.414;2023-02-12T13:18:36;102346.66;;;17.03;56.54
56514;BME280;62152;52.078;8.414;2023-02-12T13:22:53;102339.53;;;17.02;56.65
56514;BME280;62152;52.078;8.414;2023-02-12T13:27:02;102335.16;;;17.01;56.86
56514;BME280;62152;52.078;8.414;2023-02-12T13:31:15;102345.31;;;17.00;56.58
56514;BME280;62152;52.078;8.414;2023-02-12T13:35:21;102340.16;;;16.99;56.87
56514;BME280;62152;52.078;8.414;2023-02-12T13:39:31;102343.72;;;16.99;56.83
56514;BME280;62152;52.078;8.414;2023-02-12T13:43:48;102340.16;;;16.99;56.42
56514;BME280;62152;52.078;8.414;2023-02-12T13:52:47;102343.22;;;16.97;56.56
56514;BME280;62152;52.078;8.414;2023-02-12T13:56:50;102334.50;;;16.95;56.75
56514;BME280;62152;52.078;8.414;2023-02-12T14:01:00;102341.59;;;16.96;56.50
56514;BME280;62152;52.078;8.414;2023-02-12T14:05:19;102338.84;;;16.96;56.68
56514;BME280;62152;52.078;8.414;2023-02-12T14:09:29;102337.72;;;16.97;56.81
56514;BME280;62152;52.078;8.414;2023-02-12T14:13:46;102342.72;;;16.95;56.60
56514;BME280;62152;52.078;8.414;2023-02-12T14:17:54;102337.50;;;16.93;56.30
56514;BME280;62152;52.078;8.414;2023-02-12T14:22:10;102332.84;;;16.94;56.38
56514;BME280;62152;52.078;8.414;2023-02-12T14:26:15;102340.56;;;16.92;56.70
56514;BME280;62152;52.078;8.414;2023-02-12T14:30:26;102341.69;;;16.91;56.29
56514;BME280;62152;52.078;8.414;2023-02-12T14:34:46;102339.75;;;16.91;56.57
56514;BME280;62152;52.078;8.414;2023-02-12T14:39:00;102332.34;;;16.92;56.10
56514;BME280;62152;52.078;8.414;2023-02-12T14:43:24;102338.63;;;16.92;56.70
56514;BME280;62152;52.078;8.414;2023-02-12T14:47:48;102334.59;;;16.90;56.07
56514;BME280;62152;52.078;8.414;2023-02-12T14:51:54;102336.53;;;16.89;56.54
56514;BME280;62152;52.078;8.414;2023-02-12T14:56:02;102335.72;;;16.89;56.35
56514;BME280;62152;52.078;8.414;2023-02-12T15:00:20;102333.78;;;16.89;56.48
56514;BME280;62152;52.078;8.414;2023-02-12T15:04:29;102330.22;;;16.89;55.94
56514;BME280;62152;52.078;8.414;2023-02-12T15:08:42;102338.44;;;16.89;56.31
56514;BME280;62152;52.078;8.414;2023-02-12T15:12:56;102329.41;;;16.88;55.99
56514;BME280;62152;52.078;8.414;2023-02-12T15:17:08;102332.97;;;16.89;56.23
56514;BME280;62152;52.078;8.414;2023-02-12T15:21:17;102335.19;;;16.87;56.51
56514;BME280;62152;52.078;8.414;2023-02-12T15:25:23;102330.50;;;16.87;56.17
56514;BME280;62152;52.078;8.414;2023-02-12T15:29:29;102331.31;;;16.88;56.18
56514;BME280;62152;52.078;8.414;2023-02-12T15:33:40;102331.31;;;16.88;56.25
56514;BME280;62152;52.078;8.414;2023-02-12T15:37:46;102328.59;;;16.88;56.45
56514;BME280;62152;52.078;8.414;2023-02-12T15:41:48;102316.81;;;16.87;56.43
56514;BME280;62152;52.078;8.414;2023-02-12T15:45:51;102320.66;;;16.86;56.41
56514;BME280;62152;52.078;8.414;2023-02-12T15:49:58;102330.81;;;16.86;56.19
56514;BME280;62152;52.078;8.414;2023-02-12T15:54:03;102329.69;;;16.87;56.14
56514;BME280;62152;52.078;8.414;2023-02-12T15:58:19;102328.09;;;16.86;56.54
56514;BME280;62152;52.078;8.414;2023-02-12T16:02:28;102330.81;;;16.86;56.27
56514;BME280;62152;52.078;8.414;2023-02-12T16:06:33;102329.22;;;16.85;56.68
56514;BME280;62152;52.078;8.414;2023-02-12T16:10:41;102331.13;;;16.84;56.45
56514;BME280;62152;52.078;8.414;2023-02-12T16:14:48;102331.13;;;16.84;56.43
56514;BME280;62152;52.078;8.414;2023-02-12T16:19:15;102329.22;;;16.85;56.10
56514;BME280;62152;52.078;8.414;2023-02-12T16:23:19;102339.34;;;16.84;56.43
56514;BME280;62152;52.078;8.414;2023-02-12T16:27:28;102329.22;;;16.85;56.40
56514;BME280;62152;52.078;8.414;2023-02-12T16:31:32;102326.47;;;16.85;56.20
56514;BME280;62152;52.078;8.414;2023-02-12T16:35:34;102329.22;;;16.85;56.61
56514;BME280;62152;52.078;8.414;2023-02-12T16:40:16;102327.59;;;16.84;56.19
56514;BME280;62152;52.078;8.414;2023-02-12T16:44:24;102327.59;;;16.84;56.17
56514;BME280;62152;52.078;8.414;2023-02-12T16:48:27;102333.06;;;16.84;56.41
56514;BME280;62152;52.078;8.414;2023-02-12T16:52:34;102331.44;;;16.83;56.36
56514;BME280;62152;52.078;8.414;2023-02-12T16:56:38;102333.38;;;16.82;56.34
56514;BME280;62152;52.078;8.414;2023-02-12T17:00:39;102335.31;;;16.82;56.37
56514;BME280;62152;52.078;8.414;2023-02-12T17:04:41;102340.66;;;16.87;56.65
56514;BME280;62152;52.078;8.414;2023-02-12T17:08:43;102338.25;;;16.85;56.40
56514;BME280;62152;52.078;8.414;2023-02-12T17:12:45;102345.66;;;16.85;56.39
56514;BME280;62152;52.078;8.414;2023-02-12T17:16:46;102344.53;;;16.86;56.31
56514;BME280;62152;52.078;8.414;2023-02-12T17:20:52;102348.41;;;16.85;56.50
56514;BME280;62152;52.078;8.414;2023-02-12T17:24:56;102347.59;;;16.84;56.04
56514;BME280;62152;52.078;8.414;2023-02-12T17:28:57;102352.25;;;16.84;56.40
56514;BME280;62152;52.078;8.414;2023-02-12T17:32:57;102363.22;;;16.84;56.32
56514;BME280;62152;52.078;8.414;2023-02-12T17:36:58;102362.09;;;16.85;56.54
56514;BME280;62152;52.078;8.414;2023-02-12T17:41:00;102365.47;;;16.82;56.02
56514;BME280;62152;52.078;8.414;2023-02-12T17:45:01;102361.59;;;16.83;56.21
56514;BME280;62152;52.078;8.414;2023-02-12T17:49:02;102374.19;;;16.84;56.30
56514;BME280;62152;52.078;8.414;2023-02-12T17:53:03;102373.38;;;16.83;56.52
56514;BME280;62152;52.078;8.414;2023-02-12T17:57:06;102382.41;;;16.84;56.32
56514;BME280;62152;52.078;8.414;2023-02-12T18:01:09;102369.81;;;16.83;56.45
56514;BME280;62152;52.078;8.414;2023-02-12T18:05:13;102372.56;;;16.83;56.20
56514;BME280;62152;52.078;8.414;2023-02-12T18:09:14;102376.91;;;16.84;56.23
56514;BME280;62152;52.078;8.414;2023-02-12T18:13:16;102373.06;;;16.85;56.07
56514;BME280;62152;52.078;8.414;2023-02-12T18:17:17;102374.91;;;16.89;56.83
56514;BME280;62152;52.078;8.414;2023-02-12T18:21:18;102369.69;;;16.88;56.33
56514;BME280;62152;52.078;8.414;2023-02-12T18:25:19;102369.97;;;17.14;57.06
56514;BME280;62152;52.078;8.414;2023-02-12T18:29:21;102369.47;;;17.26;56.90
56514;BME280;62152;52.078;8.414;2023-02-12T18:33:22;102374.06;;;17.16;56.98
56514;BME280;62152;52.078;8.414;2023-02-12T18:37:24;102365.53;;;17.04;57.49
56514;BME280;62152;52.078;8.414;2023-02-12T18:41:27;102358.22;;;17.00;57.36
56514;BME280;62152;52.078;8.414;2023-02-12T18:45:31;102356.09;;;16.97;57.37
56514;BME280;62152;52.078;8.414;2023-02-12T18:49:32;102364.13;;;16.93;57.87
56514;BME280;62152;52.078;8.414;2023-02-12T18:53:33;102359.75;;;16.92;57.43
56514;BME280;62152;52.078;8.414;2023-02-12T18:57:34;102362.50;;;16.92;57.31
56514;BME280;62152;52.078;8.414;2023-02-12T19:01:37;102366.38;;;16.91;57.26
56514;BME280;62152;52.078;8.414;2023-02-12T19:05:37;102365.88;;;16.89;57.36
56514;BME280;62152;52.078;8.414;2023-02-12T19:09:38;102361.06;;;16.94;57.87
56514;BME280;62152;52.078;8.414;2023-02-12T19:13:39;102360.66;;;17.01;58.34
56514;BME280;62152;52.078;8.414;2023-02-12T19:17:41;102361.59;;;16.97;57.92
56514;BME280;62152;52.078;8.414;2023-02-12T19:21:42;102363.81;;;16.94;58.15
56514;BME280;62152;52.078;8.414;2023-02-12T19:25:43;102366.03;;;16.92;58.18
56514;BME280;62152;52.078;8.414;2023-02-12T19:29:44;102365.56;;;16.90;57.74
56514;BME280;62152;52.078;8.414;2023-02-12T19:33:48;102356.22;;;16.91;57.61
56514;BME280;62152;52.078;8.414;2023-02-12T19:37:50;102369.91;;;16.91;57.70
56514;BME280;62152;52.078;8.414;2023-02-12T19:41:52;102364.75;;;16.90;57.62
56514;BME280;62152;52.078;8.414;2023-02-12T19:45:53;102365.25;;;16.92;58.09
56514;BME280;62152;52.078;8.414;2023-02-12T19:49:55;102360.88;;;16.91;57.66
56514;BME280;62152;52.078;8.414;2023-02-12T19:54:00;102372.97;;;16.90;57.83
56514;BME280;62152;52.078;8.414;2023-02-12T19:58:03;102367.34;;;17.22;60.69
56514;BME280;62152;52.078;8.414;2023-02-12T20:02:03;102363.25;;;17.34;60.52
56514;BME280;62152;52.078;8.414;2023-02-12T20:06:08;102359.38;;;17.35;59.94
56514;BME280;62152;52.078;8.414;2023-02-12T20:10:10;102361.22;;;17.39;61.08
56514;BME280;62152;52.078;8.414;2023-02-12T20:14:13;102364.44;;;17.41;60.82
56514;BME280;62152;52.078;8.414;2023-02-12T20:18:14;102371.75;;;17.46;60.87
56514;BME280;62152;52.078;8.414;2023-02-12T20:22:16;102365.16;;;17.47;61.00
56514;BME280;62152;52.078;8.414;2023-02-12T20:26:18;102365.16;;;17.47;60.66
56514;BME280;62152;52.078;8.414;2023-02-12T20:30:19;102371.44;;;17.47;60.86
56514;BME280;62152;52.078;8.414;2023-02-12T20:34:20;102373.38;;;17.47;60.31
56514;BME280;62152;52.078;8.414;2023-02-12T20:38:22;102373.59;;;17.50;60.90
56514;BME280;62152;52.078;8.414;2023-02-12T20:42:23;102378.44;;;17.54;60.75
56514;BME280;62152;52.078;8.414;2023-02-12T20:46:24;102374.06;;;17.53;60.71
56514;BME280;62152;52.078;8.414;2023-02-12T20:50:26;102369.09;;;17.55;61.15
56514;BME280;62152;52.078;8.414;2023-02-12T20:54:28;102369.09;;;17.55;61.38
56514;BME280;62152;52.078;8.414;2023-02-12T20:58:29;102365.53;;;17.54;61.06
56514;BME280;62152;52.078;8.414;2023-02-12T21:02:30;102372.31;;;17.57;60.99
56514;BME280;62152;52.078;8.414;2023-02-12T21:06:31;102357.50;;;17.58;60.80
56514;BME280;62152;52.078;8.414;2023-02-12T21:10:34;102377.81;;;17.57;60.96
56514;BME280;62152;52.078;8.414;2023-02-12T21:14:35;102375.06;;;17.57;60.85
56514;BME280;62152;52.078;8.414;2023-02-12T21:18:37;102371.50;;;17.56;60.03
56514;BME280;62152;52.078;8.414;2023-02-12T21:22:38;102366.66;;;17.53;60.47
56514;BME280;62152;52.078;8.414;2023-02-12T21:26:40;102362.81;;;17.40;61.00
56514;BME280;62152;52.078;8.414;2023-02-12T21:30:41;102360.50;;;17.34;60.70
56514;BME280;62152;52.078;8.414;2023-02-12T21:34:42;102362.25;;;17.30;60.42
56514;BME280;62152;52.078;8.414;2023-02-12T21:38:45;102368.34;;;17.27;60.97
56514;BME280;62152;52.078;8.414;2023-02-12T21:42:49;102368.66;;;17.25;60.18
56514;BME280;62152;52.078;8.414;2023-02-12T21:46:50;102367.03;;;17.24;60.71